Time;durP1;ratioP1;P1;durP2;ratioP2;P2;SDS_P1;SDS_P2;PMS_P1;PMS_P2;Temp;Humidity;BMP_temperature;BMP_pressure;BME280_temperature;BME280_humidity;BME280_pressure;Samples;Min_cycle;Max_cycle;Signal;HPM_P1;HPM_P2
2022/03/23 00:02:26;;;;;;;9.27;3.80;;;4.00;78.40;3.40;99914.00;;;;4881259;28;91820;-65
2022/03/23 00:04:55;;;;;;;7.53;3.60;;;4.00;79.20;3.40;99908.00;;;;4894261;28;93766;-65
2022/03/23 00:07:22;;;;;;;8.27;4.00;;;4.00;78.80;3.40;99906.00;;;;4886278;28;92302;-65
2022/03/23 00:09:49;;;;;;;7.20;3.50;;;3.90;78.80;3.40;99910.00;;;;4890252;28;93196;-65
2022/03/23 00:12:15;;;;;;;6.63;3.40;;;4.00;78.60;3.40;99905.00;;;;4884671;28;92073;-65
2022/03/23 00:14:42;;;;;;;9.73;3.42;;;4.00;78.60;3.40;99903.00;;;;4884150;28;94217;-65
2022/03/23 00:17:08;;;;;;;8.98;3.85;;;3.90;78.80;3.30;99893.00;;;;4884910;28;92530;-65
2022/03/23 00:19:35;;;;;;;7.65;3.67;;;3.90;79.20;3.30;99901.00;;;;4881755;28;92315;-65
2022/03/23 00:22:01;;;;;;;7.53;3.53;;;3.90;79.10;3.30;99903.00;;;;4896403;28;92010;-65
2022/03/23 00:24:27;;;;;;;7.15;3.42;;;3.80;79.30;3.20;99902.00;;;;4887782;28;93752;-65
2022/03/23 00:26:53;;;;;;;8.23;3.80;;;3.80;79.60;3.20;99893.00;;;;4889199;28;92245;-65
2022/03/23 00:29:20;;;;;;;6.55;3.30;;;3.80;79.40;3.30;99894.00;;;;4891348;28;92436;-65
2022/03/23 00:31:46;;;;;;;5.72;3.22;;;3.80;79.40;3.20;99886.00;;;;4891449;28;92790;-65
2022/03/23 00:34:12;;;;;;;5.75;3.05;;;3.80;79.60;3.20;99887.00;;;;4889808;28;94757;-64
2022/03/23 00:36:38;;;;;;;6.78;3.50;;;3.70;79.90;3.20;99891.00;;;;4887988;28;93646;-64
2022/03/23 00:39:05;;;;;;;6.28;3.47;;;3.70;79.90;3.20;99879.00;;;;4891041;28;92049;-64
2022/03/23 00:41:33;;;;;;;6.70;3.10;;;3.70;79.90;3.20;99887.00;;;;4887974;28;92443;-64
2022/03/23 00:43:59;;;;;;;6.22;3.33;;;3.70;80.00;3.10;99883.00;;;;4883363;28;92549;-64
2022/03/23 00:46:26;;;;;;;6.13;2.95;;;3.60;80.10;3.20;99872.00;;;;4891681;28;93478;-65
2022/03/23 00:48:54;;;;;;;7.65;3.35;;;3.80;80.00;3.10;99870.00;;;;4883036;28;91969;-65
2022/03/23 00:51:21;;;;;;;6.07;3.42;;;3.70;80.20;3.10;99875.00;;;;4861665;28;91323;-64
2022/03/23 00:53:47;;;;;;;7.28;3.22;;;3.70;80.20;3.20;99883.00;;;;4893028;28;92639;-64
2022/03/23 00:56:13;;;;;;;8.07;3.47;;;3.80;79.90;3.20;99869.00;;;;4892162;28;93418;-64
2022/03/23 00:58:40;;;;;;;4.78;3.05;;;3.80;79.80;3.30;99877.00;;;;4877629;28;94057;-65
2022/03/23 01:01:08;;;;;;;7.97;3.50;;;3.80;79.70;3.20;99874.00;;;;4880089;28;92041;-64
2022/03/23 01:03:37;;;;;;;7.63;3.42;;;3.80;79.90;3.20;99868.00;;;;4881203;28;92666;-64
2022/03/23 01:06:04;;;;;;;9.40;3.65;;;3.80;80.00;3.20;99868.00;;;;4880616;28;92563;-65
2022/03/23 01:08:31;;;;;;;6.80;3.53;;;3.70;80.10;3.10;99867.00;;;;4894552;28;92230;-65
2022/03/23 01:10:58;;;;;;;6.18;3.33;;;3.70;80.20;3.20;99865.00;;;;4872384;28;92516;-64
2022/03/23 01:13:24;;;;;;;6.43;3.28;;;3.70;80.20;3.20;99874.00;;;;4889513;28;92948;-64
2022/03/23 01:15:51;;;;;;;7.57;3.65;;;3.70;80.20;3.20;99869.00;;;;4897664;28;92367;-64
2022/03/23 01:18:17;;;;;;;7.38;3.45;;;3.70;80.20;3.10;99867.00;;;;4886704;28;92245;-64
2022/03/23 01:20:43;;;;;;;7.85;3.55;;;3.70;80.30;3.10;99869.00;;;;4899333;28;91989;-64
2022/03/23 01:23:09;;;;;;;7.55;3.63;;;3.70;80.50;3.20;99862.00;;;;4881425;28;94736;-64
2022/03/23 01:25:36;;;;;;;7.30;3.58;;;3.70;80.40;3.10;99865.00;;;;4876319;28;93549;-65
2022/03/23 01:28:03;;;;;;;5.03;3.50;;;3.60;80.50;3.10;99865.00;;;;4886191;28;92075;-64
2022/03/23 01:30:29;;;;;;;6.63;3.55;;;3.60;80.70;3.10;99859.00;;;;4903028;28;92295;-64
2022/03/23 01:32:56;;;;;;;8.93;3.78;;;3.60;80.80;3.10;99854.00;;;;4890849;28;93254;-65
2022/03/23 01:35:27;;;;;;;6.60;3.63;;;3.60;81.10;3.00;99854.00;;;;4882769;28;92193;-65
2022/03/23 01:37:53;;;;;;;7.82;3.55;;;3.50;81.10;3.00;99856.00;;;;4889024;28;92538;-64
2022/03/23 01:40:22;;;;;;;5.75;3.65;;;3.60;81.20;3.00;99844.00;;;;4888378;28;91604;-66
2022/03/23 01:42:48;;;;;;;6.55;3.65;;;3.50;81.10;3.00;99842.00;;;;4872317;28;92460;-65
2022/03/23 01:45:15;;;;;;;7.30;3.33;;;3.50;81.10;3.00;99854.00;;;;4870734;28;92286;-64
2022/03/23 01:47:42;;;;;;;6.65;3.38;;;3.50;81.10;3.00;99855.00;;;;4888992;28;92870;-64
2022/03/23 01:50:10;;;;;;;6.35;3.42;;;3.50;81.10;3.00;99852.00;;;;4884113;28;91962;-65
2022/03/23 01:52:38;;;;;;;8.85;4.07;;;3.50;81.10;3.00;99842.00;;;;4875306;28;95447;-65
2022/03/23 01:55:17;;;;;;;9.82;3.58;;;3.50;81.10;3.00;99837.00;;;;4867190;28;92427;-64
2022/03/23 01:57:51;;;;;;;7.13;3.70;;;3.50;81.20;3.00;99843.00;;;;4861077;28;92081;-65
2022/03/23 02:00:19;;;;;;;8.45;3.42;;;3.50;81.30;2.90;99840.00;;;;4891741;28;91969;-65
2022/03/23 02:02:48;;;;;;;6.60;3.65;;;3.40;81.30;2.90;99846.00;;;;4887627;28;93758;-65
2022/03/23 02:05:17;;;;;;;5.88;3.42;;;3.40;82.00;2.80;99833.00;;;;4898977;28;92388;-65
2022/03/23 02:07:49;;;;;;;6.13;3.80;;;3.40;82.50;2.80;99828.00;;;;4877995;28;93171;-64
2022/03/23 02:10:17;;;;;;;6.35;3.72;;;3.40;82.50;2.80;99825.00;;;;4889972;28;92141;-66
2022/03/23 02:13:06;;;;;;;5.72;3.38;;;3.40;82.80;2.80;99840.00;;;;4882291;28;94750;-65
2022/03/23 02:15:33;;;;;;;9.10;3.40;;;3.30;82.80;2.80;99836.00;;;;4884149;28;94567;-65
2022/03/23 02:17:59;;;;;;;6.57;3.53;;;3.40;82.90;2.80;99827.00;;;;4871337;28;92464;-64
2022/03/23 02:20:26;;;;;;;6.63;3.60;;;3.40;82.80;2.80;99831.00;;;;4884664;28;92354;-65
2022/03/23 02:22:52;;;;;;;6.72;3.40;;;3.40;82.80;2.80;99830.00;;;;4883766;28;92613;-66
2022/03/23 02:25:27;;;;;;;6.55;3.08;;;3.40;83.10;2.80;99826.00;;;;4896695;28;92602;-65
2022/03/23 02:27:55;;;;;;;4.43;3.03;;;3.30;83.40;2.80;99820.00;;;;4889590;28;92543;-64
2022/03/23 02:30:22;;;;;;;6.18;3.20;;;3.40;83.40;2.80;99821.00;;;;4884274;28;91335;-65
2022/03/23 02:32:49;;;;;;;6.50;3.25;;;3.40;83.50;2.90;99827.00;;;;4886166;28;92352;-65
2022/03/23 02:35:16;;;;;;;5.65;3.25;;;3.40;83.40;2.80;99812.00;;;;4894938;28;93820;-65
2022/03/23 02:37:42;;;;;;;4.75;3.00;;;3.40;83.60;3.00;99825.00;;;;4896500;28;93451;-64
2022/03/23 02:40:11;;;;;;;6.82;3.53;;;3.50;83.40;3.00;99819.00;;;;4902591;28;92019;-65
2022/03/23 02:42:38;;;;;;;6.80;3.70;;;3.50;83.40;2.90;99821.00;;;;4896387;28;92736;-65
2022/03/23 02:45:07;;;;;;;6.03;3.03;;;3.40;83.60;2.90;99808.00;;;;4895835;28;94122;-65
2022/03/23 02:47:33;;;;;;;5.75;3.20;;;3.40;83.70;2.90;99817.00;;;;4885138;28;92305;-64
2022/03/23 02:49:59;;;;;;;7.82;3.72;;;3.40;83.70;2.90;99807.00;;;;4901703;28;92013;-66
2022/03/23 02:52:27;;;;;;;6.40;3.20;;;3.40;83.70;2.80;99812.00;;;;4891592;28;93958;-66
2022/03/23 03:03:55;;;;;;;6.68;3.75;;;3.10;84.90;2.40;99802.00;;;;4889869;28;93715;-64
2022/03/23 03:06:21;;;;;;;6.28;3.75;;;3.00;85.20;2.40;99804.00;;;;4891504;28;93171;-65
2022/03/23 03:08:48;;;;;;;7.93;3.88;;;2.90;85.50;2.30;99798.00;;;;4893168;28;92014;-65
2022/03/23 03:11:17;;;;;;;8.05;3.80;;;2.90;85.80;2.30;99804.00;;;;4897038;28;92031;-64
2022/03/23 03:13:48;;;;;;;6.28;3.53;;;2.90;85.70;2.30;99805.00;;;;4888991;28;93015;-65
2022/03/23 03:16:15;;;;;;;9.20;4.20;;;2.80;85.80;2.30;99800.00;;;;4881656;28;92894;-65
2022/03/23 03:18:42;;;;;;;7.60;3.80;;;2.80;85.80;2.30;99800.00;;;;4881641;28;92306;-65
2022/03/23 03:21:10;;;;;;;6.95;3.70;;;2.80;85.80;2.30;99805.00;;;;4888496;28;91679;-64
2022/03/23 03:23:42;;;;;;;7.57;3.80;;;2.90;85.90;2.30;99799.00;;;;4880269;28;92835;-64
2022/03/23 03:26:09;;;;;;;7.65;3.80;;;2.90;86.00;2.30;99803.00;;;;4895249;28;92456;-65
2022/03/23 03:28:37;;;;;;;7.88;3.60;;;2.90;85.90;2.30;99789.00;;;;4887403;28;92934;-64
2022/03/23 03:31:07;;;;;;;7.32;3.33;;;2.80;86.00;2.30;99795.00;;;;4894046;28;92383;-65
2022/03/23 03:33:34;;;;;;;8.30;3.70;;;2.80;86.20;2.30;99789.00;;;;4891332;28;93744;-64
2022/03/23 03:36:01;;;;;;;7.43;3.90;;;2.80;86.30;2.40;99786.00;;;;4894078;28;92295;-65
2022/03/23 03:38:28;;;;;;;6.00;3.63;;;2.80;86.40;2.50;99786.00;;;;4895582;28;92018;-65
2022/03/23 03:40:55;;;;;;;9.10;3.83;;;2.90;86.50;2.60;99784.00;;;;4901349;28;92386;-64
2022/03/23 03:43:23;;;;;;;6.43;3.88;;;2.90;86.60;2.70;99788.00;;;;4892927;28;92527;-65
2022/03/23 03:45:49;;;;;;;8.32;3.90;;;2.90;86.70;2.90;99792.00;;;;4888090;28;91287;-65
2022/03/23 03:48:17;;;;;;;9.93;3.70;;;3.00;87.20;3.20;99782.00;;;;4893517;28;91980;-65
2022/03/23 03:50:44;;;;;;;10.05;4.30;;;3.20;86.20;3.40;99780.00;;;;4898525;28;92033;-64
2022/03/23 03:53:10;;;;;;;7.85;4.03;;;3.30;86.00;3.50;99782.00;;;;4888147;28;93545;-64
2022/03/23 03:55:38;;;;;;;7.85;4.28;;;3.40;86.60;3.60;99788.00;;;;4881714;28;93879;-64
2022/03/23 03:58:06;;;;;;;7.43;3.90;;;3.40;85.60;3.80;99783.00;;;;4883072;28;92020;-64
2022/03/23 04:00:35;;;;;;;11.95;4.22;;;3.50;85.40;3.90;99780.00;;;;4879356;28;92088;-65
2022/03/23 04:03:03;;;;;;;7.00;4.07;;;3.60;85.20;4.00;99785.00;;;;4876644;28;93727;-64
2022/03/23 04:05:30;;;;;;;7.22;3.95;;;3.70;85.10;4.10;99789.00;;;;4895288;28;92169;-65
2022/03/23 04:07:56;;;;;;;6.25;3.92;;;3.70;84.70;4.10;99779.00;;;;4865194;28;92065;-65
2022/03/23 04:10:24;;;;;;;6.15;4.05;;;3.80;84.50;4.20;99779.00;;;;4862794;28;91828;-64
2022/03/23 04:12:51;;;;;;;6.93;3.83;;;3.90;84.20;4.40;99783.00;;;;4880620;28;95361;-64
2022/03/23 04:15:20;;;;;;;8.63;4.15;;;4.00;84.20;4.50;99773.00;;;;4895374;28;93579;-65
2022/03/23 04:17:47;;;;;;;7.80;4.70;;;4.00;84.00;4.50;99766.00;;;;4898779;28;93205;-66
2022/03/23 04:20:14;;;;;;;8.50;3.22;;;4.10;83.90;4.60;99777.00;;;;4900615;28;92411;-63
2022/03/23 04:22:40;;;;;;;10.63;4.60;;;4.10;83.60;4.80;99773.00;;;;4879921;28;92673;-64
2022/03/23 04:25:09;;;;;;;7.32;3.72;;;4.10;83.50;4.90;99769.00;;;;4886839;28;92466;-64
2022/03/23 04:27:53;;;;;;;7.38;3.53;;;4.20;83.50;5.00;99766.00;;;;4893953;28;92571;-65
2022/03/23 04:30:22;;;;;;;7.13;3.72;;;4.30;83.30;5.20;99771.00;;;;4890639;28;92182;-65
2022/03/23 04:32:51;;;;;;;9.30;4.45;;;4.30;82.90;5.40;99771.00;;;;4861427;28;92729;-65
2022/03/23 04:35:21;;;;;;;12.18;4.05;;;4.50;83.10;5.50;99761.00;;;;4893914;28;92223;-62
2022/03/23 04:37:47;;;;;;;9.25;4.30;;;4.60;82.20;5.70;99768.00;;;;4894111;28;92429;-63
2022/03/23 04:40:15;;;;;;;12.60;4.65;;;4.70;82.30;5.80;99767.00;;;;4900584;28;92469;-66
2022/03/23 04:42:43;;;;;;;12.40;4.80;;;4.80;81.90;5.90;99773.00;;;;4881925;28;94763;-66
2022/03/23 04:45:12;;;;;;;14.05;4.47;;;4.80;81.50;6.00;99769.00;;;;4890032;28;93481;-66
2022/03/23 04:47:38;;;;;;;10.52;4.55;;;4.90;81.10;6.20;99767.00;;;;4865172;28;92193;-66
2022/03/23 04:50:11;;;;;;;10.32;4.47;;;5.00;80.70;6.20;99760.00;;;;4886513;28;92438;-67
2022/03/23 04:52:41;;;;;;;14.55;5.15;;;5.10;80.60;6.30;99764.00;;;;4893009;28;93364;-66
2022/03/23 04:55:09;;;;;;;11.52;4.55;;;5.20;80.40;6.40;99770.00;;;;4880402;28;92479;-66
2022/03/23 04:57:36;;;;;;;9.55;4.72;;;5.20;80.20;6.50;99771.00;;;;4896596;28;92079;-66
2022/03/23 05:00:08;;;;;;;8.20;3.88;;;5.20;80.10;6.50;99770.00;;;;4894613;28;91819;-66
2022/03/23 05:02:34;;;;;;;9.52;5.10;;;5.30;79.90;6.50;99763.00;;;;4886608;28;92765;-66
2022/03/23 05:05:01;;;;;;;11.75;5.40;;;5.30;79.80;6.50;99762.00;;;;4899558;28;93601;-66
2022/03/23 05:07:27;;;;;;;12.25;4.65;;;5.30;79.90;6.40;99758.00;;;;4881816;28;93495;-66
2022/03/23 05:09:53;;;;;;;10.82;5.20;;;5.40;79.90;6.00;99754.00;;;;4889948;28;92013;-63
2022/03/23 05:12:19;;;;;;;9.80;4.22;;;5.30;79.80;5.60;99762.00;;;;4885418;28;92857;-63
2022/03/23 05:14:45;;;;;;;13.13;4.53;;;5.30;80.20;5.30;99758.00;;;;4882204;28;93307;-63
2022/03/23 05:17:11;;;;;;;11.07;4.72;;;5.20;80.20;5.10;99754.00;;;;4897393;28;91987;-64
2022/03/23 05:19:37;;;;;;;10.93;4.90;;;5.20;80.60;4.90;99755.00;;;;4902612;28;92462;-62
2022/03/23 05:22:04;;;;;;;13.95;5.30;;;5.10;81.00;4.80;99758.00;;;;4880613;28;92680;-62
2022/03/23 05:24:30;;;;;;;11.32;5.07;;;5.00;81.30;4.80;99758.00;;;;4894265;28;93513;-62
2022/03/23 05:26:56;;;;;;;10.95;4.70;;;5.00;81.60;4.70;99750.00;;;;4892252;28;92227;-62
2022/03/23 05:29:23;;;;;;;8.43;4.65;;;5.00;81.70;4.70;99748.00;;;;4885080;28;92129;-62
2022/03/23 05:31:49;;;;;;;12.82;4.35;;;5.00;81.60;4.80;99749.00;;;;4883514;28;95084;-62
2022/03/23 05:34:15;;;;;;;15.18;5.43;;;5.10;81.60;4.80;99759.00;;;;4890099;28;93949;-62
2022/03/23 05:36:41;;;;;;;10.30;4.72;;;5.10;81.80;4.90;99767.00;;;;4870312;28;92518;-62
2022/03/23 05:39:07;;;;;;;11.75;5.40;;;5.10;82.10;4.90;99750.00;;;;4880234;28;92649;-62
2022/03/23 05:41:34;;;;;;;13.55;6.47;;;5.20;82.00;4.90;99755.00;;;;4902005;28;92746;-63
2022/03/23 05:44:00;;;;;;;11.75;4.90;;;5.20;81.80;4.90;99752.00;;;;4893273;28;93394;-62
2022/03/23 05:46:27;;;;;;;12.35;5.10;;;5.30;82.00;5.00;99744.00;;;;4887430;28;92642;-64
2022/03/23 05:48:54;;;;;;;22.83;6.60;;;5.30;81.80;5.10;99747.00;;;;4897890;28;91620;-70
2022/03/23 05:51:20;;;;;;;14.88;4.95;;;5.40;81.50;5.10;99759.00;;;;4880856;28;92830;-68
2022/03/23 05:53:47;;;;;;;27.40;6.90;;;5.40;81.70;5.20;99752.00;;;;4884681;28;93769;-69
2022/03/23 05:56:14;;;;;;;21.02;6.63;;;5.50;81.40;5.20;99740.00;;;;4861180;28;93574;-70
2022/03/23 05:58:40;;;;;;;25.63;7.95;;;5.50;81.10;5.30;99756.00;;;;4893583;28;92718;-70
2022/03/23 06:01:06;;;;;;;23.80;6.60;;;5.60;81.10;5.30;99744.00;;;;4896899;28;92019;-69
2022/03/23 06:03:32;;;;;;;15.10;5.45;;;5.70;81.00;5.40;99750.00;;;;4892413;28;93758;-70
2022/03/23 06:05:58;;;;;;;15.10;5.60;;;5.70;80.70;5.50;99746.00;;;;4889694;28;92259;-61
2022/03/23 06:08:24;;;;;;;17.88;5.80;;;5.80;80.50;5.60;99751.00;;;;4891594;28;92125;-61
2022/03/23 06:10:51;;;;;;;19.92;5.20;;;5.80;80.20;5.60;99741.00;;;;4893271;28;93803;-63
2022/03/23 06:13:20;;;;;;;12.18;5.07;;;5.90;80.00;5.80;99741.00;;;;4896451;28;92554;-65
2022/03/23 06:15:47;;;;;;;22.88;5.90;;;6.00;79.90;5.80;99736.00;;;;4868054;28;92499;-68
2022/03/23 06:18:13;;;;;;;26.55;7.45;;;6.10;79.60;5.90;99745.00;;;;4866642;28;92168;-66
2022/03/23 06:20:39;;;;;;;30.20;6.95;;;6.20;79.30;6.00;99745.00;;;;4882939;28;93554;-65
2022/03/23 06:23:06;;;;;;;27.92;6.90;;;6.30;79.30;6.10;99752.00;;;;4869263;28;93473;-71
2022/03/23 06:25:41;;;;;;;18.33;6.43;;;6.30;79.70;6.20;99744.00;;;;4876370;28;92143;-69
2022/03/23 06:28:08;;;;;;;18.40;6.22;;;6.40;78.50;6.20;99751.00;;;;4885008;28;92589;-70
2022/03/23 06:30:34;;;;;;;29.00;6.55;;;6.50;78.50;6.30;99745.00;;;;4896091;28;92606;-68
2022/03/23 06:33:01;;;;;;;27.83;6.78;;;6.50;78.10;6.30;99744.00;;;;4868220;28;95054;-69
2022/03/23 06:35:29;;;;;;;23.23;6.80;;;6.60;78.10;6.40;99726.00;;;;4895788;28;92612;-69
2022/03/23 06:37:56;;;;;;;18.25;5.18;;;6.70;78.70;6.50;99742.00;;;;4887777;28;91291;-69
2022/03/23 06:40:22;;;;;;;21.58;5.30;;;6.70;77.30;6.60;99741.00;;;;4882494;28;92646;-69
2022/03/23 06:42:48;;;;;;;21.52;5.78;;;6.80;77.00;6.70;99746.00;;;;4886137;28;92280;-70
2022/03/23 06:45:15;;;;;;;21.25;5.50;;;6.90;77.10;6.70;99743.00;;;;4881098;28;93417;-69
2022/03/23 06:47:41;;;;;;;16.60;4.75;;;6.90;76.40;6.70;99741.00;;;;4891305;28;91985;-68
2022/03/23 06:50:08;;;;;;;23.23;5.85;;;7.00;76.10;6.70;99730.00;;;;4884291;28;92675;-62
2022/03/23 06:52:34;;;;;;;21.17;4.78;;;7.00;76.40;6.80;99735.00;;;;4883493;28;93372;-61
2022/03/23 06:55:01;;;;;;;14.13;4.72;;;7.00;76.40;6.80;99732.00;;;;4890452;28;92092;-62
2022/03/23 06:57:27;;;;;;;19.40;4.38;;;7.00;76.40;6.90;99739.00;;;;4885666;28;92102;-63
2022/03/23 06:59:53;;;;;;;15.88;3.75;;;7.00;75.90;6.90;99733.00;;;;4888898;28;92626;-61
2022/03/23 07:02:19;;;;;;;18.52;5.75;;;7.00;75.40;6.90;99729.00;;;;4886158;28;93481;-63
2022/03/23 07:04:46;;;;;;;20.02;5.78;;;7.00;75.50;6.90;99725.00;;;;4897956;28;92278;-64
2022/03/23 07:07:12;;;;;;;22.20;5.65;;;7.10;75.80;6.90;99723.00;;;;4891018;28;92412;-63
2022/03/23 07:09:40;;;;;;;16.05;4.55;;;7.10;75.80;7.00;99727.00;;;;4890193;28;93825;-62
2022/03/23 07:12:11;;;;;;;14.57;4.25;;;7.20;75.90;7.00;99731.00;;;;4882544;28;93724;-64
2022/03/23 07:14:41;;;;;;;19.20;4.97;;;7.20;75.60;7.00;99723.00;;;;4887120;28;92012;-62
2022/03/23 07:17:07;;;;;;;11.05;4.60;;;7.20;75.20;7.00;99718.00;;;;4872529;28;92056;-62
2022/03/23 07:19:34;;;;;;;11.10;4.65;;;7.10;75.40;7.10;99715.00;;;;4864664;28;93462;-62
2022/03/23 07:22:00;;;;;;;10.15;4.15;;;7.20;74.90;7.00;99717.00;;;;4887496;28;92245;-63
2022/03/23 07:24:26;;;;;;;11.55;3.67;;;7.20;74.70;7.00;99720.00;;;;4892835;28;92544;-62
2022/03/23 07:26:52;;;;;;;11.73;4.50;;;7.20;74.20;7.10;99725.00;;;;4894769;28;91311;-63
2022/03/23 07:29:19;;;;;;;8.48;2.92;;;7.20;75.10;7.10;99715.00;;;;4856604;28;93880;-63
2022/03/23 07:31:45;;;;;;;7.50;2.80;;;7.30;73.80;7.20;99717.00;;;;4891629;28;92420;-62
2022/03/23 07:34:13;;;;;;;8.75;2.83;;;7.30;73.80;7.20;99724.00;;;;4891102;28;92919;-62
2022/03/23 07:36:40;;;;;;;7.20;2.15;;;7.40;72.90;7.30;99715.00;;;;4883277;28;92575;-62
2022/03/23 07:39:06;;;;;;;7.28;2.67;;;7.50;72.60;7.30;99712.00;;;;4895291;28;92591;-62
2022/03/23 07:41:33;;;;;;;11.10;3.38;;;7.50;72.50;7.30;99713.00;;;;4879903;28;92692;-63
2022/03/23 07:43:59;;;;;;;8.15;2.38;;;7.50;72.60;7.30;99715.00;;;;4881655;28;92347;-62
2022/03/23 07:46:26;;;;;;;8.68;3.15;;;7.50;71.80;7.20;99713.00;;;;4893652;28;92062;-63
2022/03/23 07:48:52;;;;;;;11.23;3.90;;;7.40;72.50;7.20;99715.00;;;;4894638;28;92625;-63
2022/03/23 07:51:18;;;;;;;11.23;3.42;;;7.40;73.20;7.10;99708.00;;;;4899856;28;91756;-62
2022/03/23 07:53:44;;;;;;;10.45;4.28;;;7.30;73.80;7.20;99706.00;;;;4890450;28;92609;-62
2022/03/23 07:56:10;;;;;;;11.48;3.92;;;7.30;73.80;7.30;99706.00;;;;4888416;28;92095;-63
2022/03/23 07:58:36;;;;;;;14.88;4.22;;;7.40;73.90;7.30;99697.00;;;;4892131;28;93728;-62
2022/03/23 08:01:02;;;;;;;10.68;4.65;;;7.40;73.90;7.30;99700.00;;;;4881151;28;94818;-62
2022/03/23 08:03:29;;;;;;;12.48;4.10;;;7.60;73.90;7.30;99700.00;;;;4876039;28;93125;-62
2022/03/23 08:05:55;;;;;;;9.95;4.65;;;7.50;73.60;7.40;99693.00;;;;4886460;28;92212;-62
2022/03/23 08:08:22;;;;;;;18.55;5.03;;;7.50;73.70;7.40;99698.00;;;;4882277;28;93694;-62
2022/03/23 08:10:48;;;;;;;15.73;5.35;;;7.50;73.50;7.40;99686.00;;;;4890296;28;92756;-62
2022/03/23 08:13:17;;;;;;;11.48;4.80;;;7.60;73.50;7.50;99678.00;;;;4895263;28;93026;-61
2022/03/23 08:15:44;;;;;;;11.15;4.30;;;7.70;73.50;7.60;99679.00;;;;4874334;28;91439;-62
2022/03/23 08:18:10;;;;;;;17.60;4.90;;;7.80;73.20;7.60;99689.00;;;;4866852;28;95621;-64
2022/03/23 08:20:37;;;;;;;10.45;4.03;;;7.80;73.20;7.60;99687.00;;;;4900383;28;92305;-63
2022/03/23 08:23:09;;;;;;;9.18;4.00;;;7.70;73.40;7.60;99688.00;;;;4880339;28;93387;-62
2022/03/23 08:25:38;;;;;;;14.52;3.95;;;7.70;73.40;7.60;99678.00;;;;4864826;28;92076;-62
2022/03/23 08:28:06;;;;;;;8.43;3.65;;;7.70;73.30;7.60;99683.00;;;;4877017;28;92031;-62
2022/03/23 08:30:32;;;;;;;11.77;3.13;;;7.70;73.20;7.60;99683.00;;;;4885698;28;92470;-63
2022/03/23 08:32:59;;;;;;;5.70;2.72;;;7.70;72.60;7.50;99684.00;;;;4895986;28;92527;-62
2022/03/23 08:35:25;;;;;;;9.95;3.50;;;7.60;73.20;7.50;99676.00;;;;4886634;28;92123;-62
2022/03/23 08:37:52;;;;;;;7.80;2.78;;;7.60;73.90;7.40;99680.00;;;;4887165;28;92192;-65
2022/03/23 08:40:19;;;;;;;8.70;3.45;;;7.50;72.90;7.50;99664.00;;;;4881304;28;93601;-62
2022/03/23 08:42:46;;;;;;;8.82;3.10;;;7.60;72.30;7.50;99662.00;;;;4885866;28;92249;-62
2022/03/23 08:45:15;;;;;;;8.57;3.30;;;7.70;70.90;7.60;99655.00;;;;4888101;28;92354;-62
2022/03/23 08:47:42;;;;;;;10.48;3.47;;;7.80;69.30;7.70;99660.00;;;;4881968;28;94723;-62
2022/03/23 08:50:11;;;;;;;7.65;3.30;;;7.80;69.00;7.70;99652.00;;;;4884362;28;94442;-61
2022/03/23 08:52:41;;;;;;;7.10;3.13;;;7.80;68.60;7.80;99651.00;;;;4891658;28;92389;-62
2022/03/23 08:55:14;;;;;;;7.68;3.40;;;7.90;68.10;7.80;99650.00;;;;4882159;28;92262;-62
2022/03/23 08:57:42;;;;;;;5.68;2.95;;;8.00;67.30;7.90;99648.00;;;;4877547;28;92873;-62
2022/03/23 09:00:11;;;;;;;10.77;3.40;;;8.00;66.90;8.00;99645.00;;;;4891783;28;92251;-62
2022/03/23 09:02:38;;;;;;;9.38;3.10;;;8.10;68.10;8.00;99644.00;;;;4897018;28;92477;-62
2022/03/23 09:05:09;;;;;;;7.63;3.35;;;8.10;67.80;8.00;99649.00;;;;4878748;28;91665;-62
2022/03/23 09:07:38;;;;;;;7.53;3.75;;;8.10;67.30;8.00;99648.00;;;;4886955;28;93726;-63
2022/03/23 09:10:06;;;;;;;6.63;3.67;;;8.20;67.80;8.10;99640.00;;;;4890355;28;92540;-62
2022/03/23 09:12:32;;;;;;;12.43;3.72;;;8.20;66.40;8.10;99634.00;;;;4890480;28;93486;-62
2022/03/23 09:14:58;;;;;;;13.93;4.30;;;8.20;65.50;8.20;99637.00;;;;4879450;28;92998;-62
2022/03/23 09:17:25;;;;;;;8.50;3.33;;;8.30;65.50;8.20;99644.00;;;;4896511;28;93686;-62
2022/03/23 09:19:51;;;;;;;10.00;3.50;;;8.30;65.50;8.20;99623.00;;;;4899192;28;92227;-62
2022/03/23 09:22:17;;;;;;;7.65;4.00;;;8.30;63.60;8.30;99633.00;;;;4859974;28;92544;-64
2022/03/23 09:24:44;;;;;;;8.65;3.20;;;8.40;63.50;8.30;99621.00;;;;4871884;28;92510;-61
2022/03/23 09:27:10;;;;;;;11.45;4.45;;;8.40;62.60;8.30;99624.00;;;;4882260;28;95175;-63
2022/03/23 09:29:36;;;;;;;7.72;3.20;;;8.40;63.40;8.30;99627.00;;;;4889818;28;92568;-61
2022/03/23 09:32:09;;;;;;;6.47;3.53;;;8.40;62.90;8.30;99619.00;;;;4887966;28;92015;-61
2022/03/23 09:34:36;;;;;;;9.48;4.13;;;8.40;63.50;8.40;99618.00;;;;4877940;28;92080;-62
2022/03/23 09:39:48;;;;;;;9.88;3.80;;;8.50;63.50;8.50;99624.00;;;;4897408;28;95011;-62
2022/03/23 09:42:18;;;;;;;6.57;3.22;;;8.60;63.70;8.50;99612.00;;;;4883763;28;92007;-61
2022/03/23 09:44:46;;;;;;;4.60;2.70;;;8.50;62.00;8.50;99611.00;;;;4886983;28;92447;-62
2022/03/23 09:47:13;;;;;;;5.18;2.90;;;8.60;60.70;8.50;99604.00;;;;4878770;28;92723;-63
2022/03/23 09:49:39;;;;;;;5.85;2.92;;;8.60;59.70;8.50;99612.00;;;;4879188;28;92330;-63
2022/03/23 09:52:06;;;;;;;5.38;2.85;;;8.60;58.90;8.50;99605.00;;;;4899093;28;92100;-63
2022/03/23 09:54:33;;;;;;;7.50;3.28;;;8.60;59.40;8.60;99611.00;;;;4883203;28;91502;-63
2022/03/23 09:56:59;;;;;;;7.68;2.53;;;8.70;59.00;8.60;99601.00;;;;4847344;28;95297;-62
2022/03/23 09:59:25;;;;;;;6.93;3.50;;;8.70;56.60;8.70;99594.00;;;;4895758;28;93610;-62
2022/03/23 10:02:00;;;;;;;9.40;3.75;;;8.80;58.00;8.70;99595.00;;;;4899256;28;93228;-62
2022/03/23 10:05:22;;;;;;;7.82;3.00;;;8.80;59.30;8.80;99583.00;;;;4889739;28;92013;-64
2022/03/23 10:08:25;;;;;;;4.97;2.90;;;8.80;58.20;8.80;99586.00;;;;4897250;28;92711;-63
2022/03/23 10:11:47;;;;;;;6.22;3.08;;;8.80;58.00;8.70;99578.00;;;;4867670;28;92264;-63
2022/03/23 10:14:51;;;;;;;5.57;2.92;;;8.80;56.80;8.80;99573.00;;;;4875782;28;91885;-63
2022/03/23 10:17:42;;;;;;;6.53;2.90;;;8.80;56.40;8.90;99568.00;;;;4889182;28;92175;-63
2022/03/23 10:20:12;;;;;;;6.55;2.95;;;8.90;56.10;8.90;99555.00;;;;4884244;28;92713;-61
2022/03/23 10:22:53;;;;;;;8.25;3.35;;;9.00;57.80;9.00;99562.00;;;;4889296;28;92202;-63
2022/03/23 10:25:27;;;;;;;8.43;3.23;;;9.10;58.30;9.10;99555.00;;;;4892842;28;92240;-63
2022/03/23 10:27:55;;;;;;;10.18;3.53;;;9.10;57.60;9.10;99551.00;;;;4847797;29;92031;-63
2022/03/23 10:30:37;;;;;;;13.23;3.50;;;9.10;55.20;9.10;99550.00;;;;4851697;29;93590;-64
2022/03/23 10:33:14;;;;;;;7.65;3.35;;;9.10;56.60;9.10;99545.00;;;;4882502;28;94695;-63
2022/03/23 10:35:41;;;;;;;10.23;3.92;;;9.10;56.10;9.10;99545.00;;;;4875015;28;92073;-64
2022/03/23 10:38:20;;;;;;;10.85;4.13;;;9.10;56.50;9.20;99530.00;;;;4896661;28;92177;-63
2022/03/23 10:40:52;;;;;;;8.98;3.55;;;9.20;56.90;9.20;99536.00;;;;4903137;28;92040;-63
2022/03/23 10:43:35;;;;;;;5.95;3.17;;;9.20;56.00;9.30;99532.00;;;;4893093;28;92444;-63
2022/03/23 10:46:13;;;;;;;8.95;3.97;;;9.40;57.00;9.30;99530.00;;;;4871208;28;92524;-63
2022/03/23 10:48:51;;;;;;;6.97;3.55;;;9.40;56.20;9.30;99510.00;;;;4877266;28;91230;-64
2022/03/23 10:51:36;;;;;;;8.02;3.47;;;9.30;56.60;9.40;99517.00;;;;4884977;28;92761;-63
2022/03/23 10:54:18;;;;;;;9.52;3.28;;;9.40;57.10;9.40;99514.00;;;;4881544;28;92258;-63
2022/03/23 10:56:46;;;;;;;12.48;4.60;;;9.40;57.40;9.50;99513.00;;;;4893462;28;93004;-63
2022/03/23 10:59:26;;;;;;;9.63;3.80;;;9.50;58.90;9.60;99502.00;;;;4865208;28;92221;-61
2022/03/23 11:02:03;;;;;;;7.55;3.65;;;9.60;57.60;9.60;99507.00;;;;4898124;28;92852;-61
2022/03/23 11:04:53;;;;;;;10.27;3.33;;;9.60;57.10;9.60;99498.00;;;;4882496;28;92507;-62
2022/03/23 11:07:29;;;;;;;6.95;2.80;;;9.60;54.00;9.60;99497.00;;;;4894371;28;92162;-62
2022/03/23 11:15:47;;;;;;;9.38;3.33;;;9.40;54.50;9.30;99496.00;;;;4898782;28;93563;-63
2022/03/23 11:18:20;;;;;;;6.85;3.10;;;9.30;55.80;9.40;99492.00;;;;4880492;28;92043;-62
2022/03/23 11:20:53;;;;;;;7.40;3.10;;;9.40;55.30;9.40;99490.00;;;;4882623;28;92059;-63
2022/03/23 11:23:28;;;;;;;6.20;2.97;;;9.40;55.40;9.50;99483.00;;;;4875804;28;93853;-62
2022/03/23 11:26:07;;;;;;;6.18;3.00;;;9.50;56.20;9.50;99491.00;;;;4874789;28;93173;-62
2022/03/23 11:28:45;;;;;;;7.80;2.92;;;9.50;55.10;9.50;99481.00;;;;4884507;28;92109;-63
2022/03/23 11:31:16;;;;;;;8.52;3.28;;;9.50;55.00;9.60;99485.00;;;;4896345;28;92945;-69
2022/03/23 11:33:49;;;;;;;8.93;3.08;;;9.60;55.20;9.60;99468.00;;;;4879597;28;92874;-70